sensor_id;sensor_type;location;lat;lon;timestamp;pressure;altitude;pressure_sealevel;temperature;humidity
45345;BME280;31078;48.304;11.896;2023-01-16T00:00:51;95327.66;;;1.46;76.24
45345;BME280;31078;48.304;11.896;2023-01-16T00:03:17;95321.28;;;1.42;76.30
45345;BME280;31078;48.304;11.896;2023-01-16T00:05:44;95314.91;;;1.38;76.98
45345;BME280;31078;48.304;11.896;2023-01-16T00:08:11;95308.53;;;1.28;77.29
45345;BME280;31078;48.304;11.896;2023-01-16T00:10:39;95305.91;;;1.23;77.93
45345;BME280;31078;48.304;11.896;2023-01-16T00:13:05;95302.19;;;1.19;78.12
45345;BME280;31078;48.304;11.896;2023-01-16T00:15:32;95301.41;;;1.19;78.34
45345;BME280;31078;48.304;11.896;2023-01-16T00:17:59;95302.50;;;1.18;78.33
45345;BME280;31078;48.304;11.896;2023-01-16T00:20:25;95297.53;;;1.06;78.61
45345;BME280;31078;48.304;11.896;2023-01-16T00:22:52;95292.34;;;0.86;79.65
45345;BME280;31078;48.304;11.896;2023-01-16T00:25:18;95286.38;;;0.94;79.69
45345;BME280;31078;48.304;11.896;2023-01-16T00:27:46;95288.72;;;1.00;79.15
45345;BME280;31078;48.304;11.896;2023-01-16T00:30:13;95282.34;;;0.96;78.84
45345;BME280;31078;48.304;11.896;2023-01-16T00:32:39;95283.59;;;1.04;78.75
45345;BME280;31078;48.304;11.896;2023-01-16T00:35:07;95291.56;;;1.09;78.21
45345;BME280;31078;48.304;11.896;2023-01-16T00:37:33;95284.53;;;1.18;77.29
45345;BME280;31078;48.304;11.896;2023-01-16T00:40:00;95279.78;;;1.10;77.99
45345;BME280;31078;48.304;11.896;2023-01-16T00:42:26;95276.53;;;1.13;77.93
45345;BME280;31078;48.304;11.896;2023-01-16T00:44:54;95273.78;;;1.18;77.43
45345;BME280;31078;48.304;11.896;2023-01-16T00:47:20;95272.94;;;1.23;77.22
45345;BME280;31078;48.304;11.896;2023-01-16T00:49:47;95265.34;;;1.30;76.84
45345;BME280;31078;48.304;11.896;2023-01-16T00:52:13;95267.75;;;1.32;76.58
45345;BME280;31078;48.304;11.896;2023-01-16T00:54:40;95262.84;;;1.39;76.19
45345;BME280;31078;48.304;11.896;2023-01-16T00:57:06;95255.88;;;1.38;76.26
45345;BME280;31078;48.304;11.896;2023-01-16T00:59:32;95246.75;;;1.39;75.95
45345;BME280;31078;48.304;11.896;2023-01-16T01:02:00;95250.53;;;1.38;76.19
45345;BME280;31078;48.304;11.896;2023-01-16T01:04:27;95247.91;;;1.33;76.35
45345;BME280;31078;48.304;11.896;2023-01-16T01:06:54;95238.19;;;1.37;75.98
45345;BME280;31078;48.304;11.896;2023-01-16T01:09:21;95237.09;;;1.38;76.38
45345;BME280;31078;48.304;11.896;2023-01-16T01:11:47;95232.31;;;1.35;76.50
45345;BME280;31078;48.304;11.896;2023-01-16T01:14:13;95225.34;;;1.34;75.83
45345;BME280;31078;48.304;11.896;2023-01-16T01:16:40;95228.03;;;1.34;75.54
45345;BME280;31078;48.304;11.896;2023-01-16T01:19:08;95222.09;;;1.37;75.04
45345;BME280;31078;48.304;11.896;2023-01-16T01:21:34;95217.25;;;1.39;74.41
45345;BME280;31078;48.304;11.896;2023-01-16T01:24:01;95224.13;;;1.45;74.92
45345;BME280;31078;48.304;11.896;2023-01-16T01:26:27;95213.06;;;1.51;74.47
45345;BME280;31078;48.304;11.896;2023-01-16T01:28:54;95216.50;;;1.57;73.95
45345;BME280;31078;48.304;11.896;2023-01-16T01:31:20;95208.13;;;1.59;73.51
45345;BME280;31078;48.304;11.896;2023-01-16T01:33:46;95199.63;;;1.33;74.20
45345;BME280;31078;48.304;11.896;2023-01-16T01:36:14;95202.53;;;1.55;73.21
45345;BME280;31078;48.304;11.896;2023-01-16T01:38:41;95185.22;;;1.47;74.02
45345;BME280;31078;48.304;11.896;2023-01-16T01:41:11;95184.91;;;1.49;74.22
45345;BME280;31078;48.304;11.896;2023-01-16T01:43:40;95183.41;;;1.43;74.25
45345;BME280;31078;48.304;11.896;2023-01-16T01:46:14;95179.63;;;1.44;74.57
45345;BME280;31078;48.304;11.896;2023-01-16T01:48:44;95171.66;;;1.39;74.27
45345;BME280;31078;48.304;11.896;2023-01-16T01:51:17;95169.75;;;1.39;74.35
45345;BME280;31078;48.304;11.896;2023-01-16T01:53:45;95161.94;;;1.43;74.16
45345;BME280;31078;48.304;11.896;2023-01-16T01:56:14;95157.66;;;1.42;74.84
45345;BME280;31078;48.304;11.896;2023-01-16T01:58:44;95150.13;;;1.44;75.02
45345;BME280;31078;48.304;11.896;2023-01-16T02:01:12;95156.13;;;1.36;75.13
45345;BME280;31078;48.304;11.896;2023-01-16T02:03:41;95152.50;;;1.45;74.35
45345;BME280;31078;48.304;11.896;2023-01-16T02:06:14;95145.84;;;1.43;74.57
45345;BME280;31078;48.304;11.896;2023-01-16T02:08:46;95132.72;;;1.41;74.54
45345;BME280;31078;48.304;11.896;2023-01-16T02:11:16;95141.63;;;1.37;75.02
45345;BME280;31078;48.304;11.896;2023-01-16T02:13:53;95140.03;;;1.36;75.21
45345;BME280;31078;48.304;11.896;2023-01-16T02:16:21;95136.28;;;1.37;75.46
45345;BME280;31078;48.304;11.896;2023-01-16T02:19:06;95132.94;;;1.26;75.60
45345;BME280;31078;48.304;11.896;2023-01-16T02:22:11;95124.75;;;1.36;75.39
45345;BME280;31078;48.304;11.896;2023-01-16T02:25:02;95117.34;;;1.28;75.67
45345;BME280;31078;48.304;11.896;2023-01-16T02:27:58;95106.91;;;1.26;75.72
45345;BME280;31078;48.304;11.896;2023-01-16T02:33:32;95088.84;;;1.13;76.92
45345;BME280;31078;48.304;11.896;2023-01-16T02:36:10;95086.69;;;1.15;77.07
45345;BME280;31078;48.304;11.896;2023-01-16T02:38:46;95074.94;;;1.11;76.85
45345;BME280;31078;48.304;11.896;2023-01-16T02:41:23;95071.16;;;1.12;76.84
45345;BME280;31078;48.304;11.896;2023-01-16T02:43:57;95078.25;;;1.03;77.59
45345;BME280;31078;48.304;11.896;2023-01-16T02:46:31;95064.84;;;1.03;77.66
45345;BME280;31078;48.304;11.896;2023-01-16T02:49:04;95064.00;;;1.08;77.15
45345;BME280;31078;48.304;11.896;2023-01-16T02:51:38;95058.41;;;1.04;77.61
45345;BME280;31078;48.304;11.896;2023-01-16T02:54:10;95058.69;;;1.02;77.73
45345;BME280;31078;48.304;11.896;2023-01-16T02:56:56;95049.84;;;1.02;77.55
45345;BME280;31078;48.304;11.896;2023-01-16T02:59:24;95038.34;;;1.01;77.13
45345;BME280;31078;48.304;11.896;2023-01-16T03:01:55;95029.81;;;0.99;77.37
45345;BME280;31078;48.304;11.896;2023-01-16T03:04:40;95040.16;;;1.06;76.75
45345;BME280;31078;48.304;11.896;2023-01-16T03:10:05;95021.78;;;0.99;77.41
45345;BME280;31078;48.304;11.896;2023-01-16T03:12:40;95025.38;;;0.90;77.57
45345;BME280;31078;48.304;11.896;2023-01-16T03:15:13;95012.63;;;0.82;78.09
45345;BME280;31078;48.304;11.896;2023-01-16T03:17:51;95009.63;;;0.83;78.00
45345;BME280;31078;48.304;11.896;2023-01-16T03:20:30;94998.06;;;0.88;78.04
45345;BME280;31078;48.304;11.896;2023-01-16T03:23:07;94993.78;;;0.87;78.18
45345;BME280;31078;48.304;11.896;2023-01-16T03:25:36;94994.88;;;0.86;77.93
45345;BME280;31078;48.304;11.896;2023-01-16T03:28:13;94991.31;;;0.71;78.17
45345;BME280;31078;48.304;11.896;2023-01-16T03:30:48;94980.53;;;0.76;78.42
45345;BME280;31078;48.304;11.896;2023-01-16T03:33:24;94978.78;;;0.67;78.88
45345;BME280;31078;48.304;11.896;2023-01-16T03:35:59;94972.50;;;0.76;78.73
45345;BME280;31078;48.304;11.896;2023-01-16T03:38:29;94967.41;;;0.56;78.67
45345;BME280;31078;48.304;11.896;2023-01-16T03:40:59;94964.88;;;0.65;78.52
45345;BME280;31078;48.304;11.896;2023-01-16T03:43:30;94963.97;;;0.74;78.50
45345;BME280;31078;48.304;11.896;2023-01-16T03:46:01;94947.88;;;0.74;78.12
45345;BME280;31078;48.304;11.896;2023-01-16T03:48:34;94943.97;;;0.67;78.56
45345;BME280;31078;48.304;11.896;2023-01-16T03:51:06;94940.06;;;0.59;78.80
45345;BME280;31078;48.304;11.896;2023-01-16T03:53:35;94932.03;;;0.59;78.64
45345;BME280;31078;48.304;11.896;2023-01-16T03:56:11;94930.13;;;0.60;78.75
45345;BME280;31078;48.304;11.896;2023-01-16T03:58:41;94920.44;;;0.64;78.48
45345;BME280;31078;48.304;11.896;2023-01-16T04:01:12;94916.44;;;0.61;79.05
45345;BME280;31078;48.304;11.896;2023-01-16T04:03:46;94911.88;;;0.62;79.18
45345;BME280;31078;48.304;11.896;2023-01-16T04:06:20;94899.88;;;0.59;79.23
45345;BME280;31078;48.304;11.896;2023-01-16T04:08:51;94892.41;;;0.56;79.42
45345;BME280;31078;48.304;11.896;2023-01-16T04:11:20;94893.81;;;0.54;79.73
45345;BME280;31078;48.304;11.896;2023-01-16T04:13:50;94874.53;;;0.51;79.60
45345;BME280;31078;48.304;11.896;2023-01-16T04:16:19;94874.34;;;0.48;79.60
45345;BME280;31078;48.304;11.896;2023-01-16T04:18:48;94871.84;;;0.51;79.42
45345;BME280;31078;48.304;11.896;2023-01-16T04:21:17;94867.59;;;0.50;79.60
45345;BME280;31078;48.304;11.896;2023-01-16T04:23:44;94863.03;;;0.51;79.60
45345;BME280;31078;48.304;11.896;2023-01-16T04:26:10;94860.34;;;0.51;79.67
45345;BME280;31078;48.304;11.896;2023-01-16T04:28:37;94852.91;;;0.48;79.82
45345;BME280;31078;48.304;11.896;2023-01-16T04:31:03;94846.53;;;0.44;80.45
45345;BME280;31078;48.304;11.896;2023-01-16T04:33:30;94842.53;;;0.41;80.63
45345;BME280;31078;48.304;11.896;2023-01-16T04:35:56;94828.09;;;0.42;80.62
45345;BME280;31078;48.304;11.896;2023-01-16T04:38:24;94819.34;;;0.37;80.91
45345;BME280;31078;48.304;11.896;2023-01-16T04:40:52;94808.31;;;0.38;81.08
45345;BME280;31078;48.304;11.896;2023-01-16T04:43:19;94799.66;;;0.28;81.65
45345;BME280;31078;48.304;11.896;2023-01-16T04:45:46;94801.31;;;0.23;82.06
45345;BME280;31078;48.304;11.896;2023-01-16T04:48:12;94794.38;;;0.22;82.44
45345;BME280;31078;48.304;11.896;2023-01-16T04:50:39;94791.47;;;0.19;82.50
45345;BME280;31078;48.304;11.896;2023-01-16T04:53:05;94775.72;;;0.17;82.84
45345;BME280;31078;48.304;11.896;2023-01-16T04:55:33;94775.19;;;0.15;83.04
45345;BME280;31078;48.304;11.896;2023-01-16T04:57:59;94768.84;;;0.11;83.86
45345;BME280;31078;48.304;11.896;2023-01-16T05:00:26;94760.81;;;0.11;83.92
45345;BME280;31078;48.304;11.896;2023-01-16T05:02:52;94761.69;;;0.07;84.21
45345;BME280;31078;48.304;11.896;2023-01-16T05:05:19;94752.88;;;0.06;84.25
45345;BME280;31078;48.304;11.896;2023-01-16T05:07:45;94749.09;;;0.07;84.60
45345;BME280;31078;48.304;11.896;2023-01-16T05:10:33;94749.97;;;0.03;84.41
45345;BME280;31078;48.304;11.896;2023-01-16T05:12:59;94744.03;;;0.06;84.85
45345;BME280;31078;48.304;11.896;2023-01-16T05:15:26;94746.50;;;0.02;85.15
45345;BME280;31078;48.304;11.896;2023-01-16T05:17:52;94743.75;;;0.07;84.63
45345;BME280;31078;48.304;11.896;2023-01-16T05:20:19;94737.97;;;0.00;85.04
45345;BME280;31078;48.304;11.896;2023-01-16T05:22:47;94732.09;;;-0.02;85.21
45345;BME280;31078;48.304;11.896;2023-01-16T05:25:14;94727.28;;;0.00;85.38
45345;BME280;31078;48.304;11.896;2023-01-16T05:27:42;94727.84;;;-0.03;85.59
45345;BME280;31078;48.304;11.896;2023-01-16T05:30:09;94730.50;;;-0.03;85.83
45345;BME280;31078;48.304;11.896;2023-01-16T05:32:36;94714.47;;;-0.03;85.96
45345;BME280;31078;48.304;11.896;2023-01-16T05:35:03;94703.75;;;-0.03;85.76
45345;BME280;31078;48.304;11.896;2023-01-16T05:37:29;94700.59;;;-0.05;85.98
45345;BME280;31078;48.304;11.896;2023-01-16T05:39:56;94700.59;;;-0.05;86.06
45345;BME280;31078;48.304;11.896;2023-01-16T05:42:22;94695.44;;;-0.02;86.22
45345;BME280;31078;48.304;11.896;2023-01-16T05:44:52;94692.19;;;0.02;86.29
45345;BME280;31078;48.304;11.896;2023-01-16T05:47:19;94681.66;;;0.05;86.14
45345;BME280;31078;48.304;11.896;2023-01-16T05:49:46;94672.66;;;0.01;86.08
45345;BME280;31078;48.304;11.896;2023-01-16T05:52:13;94673.63;;;0.05;86.26
45345;BME280;31078;48.304;11.896;2023-01-16T05:54:39;94671.25;;;0.04;86.16
45345;BME280;31078;48.304;11.896;2023-01-16T05:57:06;94664.56;;;0.06;86.04
45345;BME280;31078;48.304;11.896;2023-01-16T05:59:32;94646.38;;;0.03;85.94
45345;BME280;31078;48.304;11.896;2023-01-16T06:02:00;94648.28;;;0.03;85.77
45345;BME280;31078;48.304;11.896;2023-01-16T06:04:26;94644.81;;;0.02;85.86
45345;BME280;31078;48.304;11.896;2023-01-16T06:06:53;94649.16;;;-0.02;85.81
45345;BME280;31078;48.304;11.896;2023-01-16T06:09:20;94648.06;;;-0.01;85.96
45345;BME280;31078;48.304;11.896;2023-01-16T06:11:46;94638.44;;;-0.02;85.77
45345;BME280;31078;48.304;11.896;2023-01-16T06:14:12;94631.44;;;0.02;85.83
45345;BME280;31078;48.304;11.896;2023-01-16T06:16:39;94637.56;;;0.03;85.54
45345;BME280;31078;48.304;11.896;2023-01-16T06:19:07;94632.53;;;0.01;85.60
45345;BME280;31078;48.304;11.896;2023-01-16T06:21:33;94626.38;;;0.01;85.44
45345;BME280;31078;48.304;11.896;2023-01-16T06:24:00;94622.09;;;-0.01;85.63
45345;BME280;31078;48.304;11.896;2023-01-16T06:26:27;94614.38;;;-0.02;85.54
45345;BME280;31078;48.304;11.896;2023-01-16T06:28:53;94608.44;;;0.01;85.09
45345;BME280;31078;48.304;11.896;2023-01-16T06:31:21;94600.97;;;-0.02;85.44
45345;BME280;31078;48.304;11.896;2023-01-16T06:33:48;94596.41;;;-0.02;85.25
45345;BME280;31078;48.304;11.896;2023-01-16T06:36:15;94585.44;;;0.00;85.19
45345;BME280;31078;48.304;11.896;2023-01-16T06:38:42;94582.47;;;0.02;84.81
45345;BME280;31078;48.304;11.896;2023-01-16T06:41:08;94575.09;;;-0.07;85.64
45345;BME280;31078;48.304;11.896;2023-01-16T06:43:36;94566.28;;;-0.07;85.99
45345;BME280;31078;48.304;11.896;2023-01-16T06:46:02;94549.94;;;-0.06;86.18
45345;BME280;31078;48.304;11.896;2023-01-16T06:48:29;94540.03;;;-0.05;85.73
45345;BME280;31078;48.304;11.896;2023-01-16T06:50:57;94534.69;;;-0.05;85.67
45345;BME280;31078;48.304;11.896;2023-01-16T06:53:25;94531.50;;;-0.07;85.46
45345;BME280;31078;48.304;11.896;2023-01-16T06:55:52;94527.72;;;-0.06;85.30
45345;BME280;31078;48.304;11.896;2023-01-16T06:58:19;94518.91;;;-0.07;85.36
45345;BME280;31078;48.304;11.896;2023-01-16T07:00:47;94512.69;;;-0.02;85.19
45345;BME280;31078;48.304;11.896;2023-01-16T07:03:16;94509.91;;;0.03;85.02
45345;BME280;31078;48.304;11.896;2023-01-16T07:05:44;94503.97;;;0.06;85.13
45345;BME280;31078;48.304;11.896;2023-01-16T07:08:11;94492.66;;;0.09;84.83
45345;BME280;31078;48.304;11.896;2023-01-16T07:10:39;94494.25;;;0.10;84.29
45345;BME280;31078;48.304;11.896;2023-01-16T07:13:06;94487.31;;;0.09;84.20
45345;BME280;31078;48.304;11.896;2023-01-16T07:15:32;94485.81;;;0.03;84.24
45345;BME280;31078;48.304;11.896;2023-01-16T07:18:17;94481.38;;;-0.02;84.12
45345;BME280;31078;48.304;11.896;2023-01-16T07:21:02;94474.22;;;-0.06;84.17
45345;BME280;31078;48.304;11.896;2023-01-16T07:23:49;94470.28;;;-0.09;84.40
45345;BME280;31078;48.304;11.896;2023-01-16T07:26:19;94460.34;;;-0.08;84.65
45345;BME280;31078;48.304;11.896;2023-01-16T07:28:47;94458.97;;;-0.06;84.36
45345;BME280;31078;48.304;11.896;2023-01-16T07:31:15;94445.31;;;-0.04;84.39
45345;BME280;31078;48.304;11.896;2023-01-16T07:33:42;94438.75;;;0.02;84.01
45345;BME280;31078;48.304;11.896;2023-01-16T07:36:08;94428.06;;;0.02;84.06
45345;BME280;31078;48.304;11.896;2023-01-16T07:38:35;94435.78;;;0.04;83.92
45345;BME280;31078;48.304;11.896;2023-01-16T07:41:01;94428.44;;;0.09;83.92
45345;BME280;31078;48.304;11.896;2023-01-16T07:43:29;94420.31;;;0.14;83.72
45345;BME280;31078;48.304;11.896;2023-01-16T07:45:56;94415.94;;;0.18;83.63
45345;BME280;31078;48.304;11.896;2023-01-16T07:48:23;94413.16;;;0.23;83.36
45345;BME280;31078;48.304;11.896;2023-01-16T07:50:51;94400.25;;;0.25;83.30
45345;BME280;31078;48.304;11.896;2023-01-16T07:53:18;94390.53;;;0.30;83.28
45345;BME280;31078;48.304;11.896;2023-01-16T07:55:48;94381.91;;;0.33;83.14
45345;BME280;31078;48.304;11.896;2023-01-16T07:58:15;94380.41;;;0.40;82.87
45345;BME280;31078;48.304;11.896;2023-01-16T08:00:43;94368.66;;;0.50;82.04
45345;BME280;31078;48.304;11.896;2023-01-16T08:03:10;94361.06;;;0.66;81.70
45345;BME280;31078;48.304;11.896;2023-01-16T08:05:36;94349.81;;;1.31;79.41
45345;BME280;31078;48.304;11.896;2023-01-16T08:08:03;94348.19;;;2.09;75.85
45345;BME280;31078;48.304;11.896;2023-01-16T08:10:30;94337.97;;;2.72;71.16
45345;BME280;31078;48.304;11.896;2023-01-16T08:12:57;94336.38;;;3.44;68.94
45345;BME280;31078;48.304;11.896;2023-01-16T08:15:23;94333.13;;;4.27;65.78
45345;BME280;31078;48.304;11.896;2023-01-16T08:17:51;94318.03;;;5.10;62.71
45345;BME280;31078;48.304;11.896;2023-01-16T08:20:18;94315.25;;;5.64;59.01
45345;BME280;31078;48.304;11.896;2023-01-16T08:22:45;94320.91;;;5.95;57.71
45345;BME280;31078;48.304;11.896;2023-01-16T08:25:13;94312.75;;;6.44;56.32
45345;BME280;31078;48.304;11.896;2023-01-16T08:27:40;94307.22;;;6.81;54.82
45345;BME280;31078;48.304;11.896;2023-01-16T08:30:10;94291.44;;;6.83;53.27
45345;BME280;31078;48.304;11.896;2023-01-16T08:32:37;94286.97;;;6.75;53.69
45345;BME280;31078;48.304;11.896;2023-01-16T08:35:06;94273.78;;;6.21;55.14
45345;BME280;31078;48.304;11.896;2023-01-16T08:37:33;94274.13;;;5.58;56.23
45345;BME280;31078;48.304;11.896;2023-01-16T08:39:59;94270.63;;;5.21;58.19
45345;BME280;31078;48.304;11.896;2023-01-16T08:42:26;94254.91;;;5.35;58.13
45345;BME280;31078;48.304;11.896;2023-01-16T08:45:11;94250.06;;;5.41;57.90
45345;BME280;31078;48.304;11.896;2023-01-16T08:47:56;94243.41;;;5.26;58.57
45345;BME280;31078;48.304;11.896;2023-01-16T08:50:42;94228.50;;;4.83;59.51
45345;BME280;31078;48.304;11.896;2023-01-16T08:53:27;94228.00;;;4.36;60.66
45345;BME280;31078;48.304;11.896;2023-01-16T08:55:53;94230.16;;;3.80;62.99
45345;BME280;31078;48.304;11.896;2023-01-16T08:58:20;94220.38;;;3.46;64.36
45345;BME280;31078;48.304;11.896;2023-01-16T09:00:47;94215.34;;;3.06;66.34
45345;BME280;31078;48.304;11.896;2023-01-16T09:03:14;94209.53;;;2.86;68.02
45345;BME280;31078;48.304;11.896;2023-01-16T09:05:43;94213.22;;;2.73;68.75
45345;BME280;31078;48.304;11.896;2023-01-16T09:08:10;94200.56;;;2.74;70.10
45345;BME280;31078;48.304;11.896;2023-01-16T09:10:37;94195.00;;;2.87;69.44
45345;BME280;31078;48.304;11.896;2023-01-16T09:13:04;94189.66;;;2.70;70.12
45345;BME280;31078;48.304;11.896;2023-01-16T09:15:48;94182.72;;;2.69;70.39
45345;BME280;31078;48.304;11.896;2023-01-16T09:18:15;94174.78;;;2.81;70.09
45345;BME280;31078;48.304;11.896;2023-01-16T09:20:43;94162.75;;;2.87;69.99
45345;BME280;31078;48.304;11.896;2023-01-16T09:23:09;94155.66;;;2.83;69.96
45345;BME280;31078;48.304;11.896;2023-01-16T09:25:36;94158.81;;;2.76;70.66
45345;BME280;31078;48.304;11.896;2023-01-16T09:28:03;94151.34;;;2.91;70.13
45345;BME280;31078;48.304;11.896;2023-01-16T09:30:29;94153.13;;;3.16;70.53
45345;BME280;31078;48.304;11.896;2023-01-16T09:32:56;94140.69;;;3.32;69.02
45345;BME280;31078;48.304;11.896;2023-01-16T09:35:23;94144.75;;;3.38;68.79
45345;BME280;31078;48.304;11.896;2023-01-16T09:37:51;94141.25;;;3.47;69.10
45345;BME280;31078;48.304;11.896;2023-01-16T09:40:19;94127.59;;;3.52;69.40
45345;BME280;31078;48.304;11.896;2023-01-16T09:42:59;94119.47;;;3.60;68.14
45345;BME280;31078;48.304;11.896;2023-01-16T09:45:48;94101.25;;;3.78;68.81
45345;BME280;31078;48.304;11.896;2023-01-16T09:48:22;94097.75;;;3.99;68.35
45345;BME280;31078;48.304;11.896;2023-01-16T09:50:51;94094.44;;;4.14;67.33
45345;BME280;31078;48.304;11.896;2023-01-16T09:53:23;94083.63;;;4.35;65.97
45345;BME280;31078;48.304;11.896;2023-01-16T09:56:11;94076.69;;;4.58;65.36
45345;BME280;31078;48.304;11.896;2023-01-16T09:59:02;94053.91;;;4.92;64.30
45345;BME280;31078;48.304;11.896;2023-01-16T10:01:36;94053.44;;;5.03;63.83
45345;BME280;31078;48.304;11.896;2023-01-16T10:04:14;94051.16;;;5.29;62.34
45345;BME280;31078;48.304;11.896;2023-01-16T10:06:52;94046.50;;;5.42;63.00
45345;BME280;31078;48.304;11.896;2023-01-16T10:09:31;94036.97;;;5.44;62.77
45345;BME280;31078;48.304;11.896;2023-01-16T10:12:01;94027.13;;;5.52;62.74
45345;BME280;31078;48.304;11.896;2023-01-16T10:14:43;94020.88;;;5.76;61.11
45345;BME280;31078;48.304;11.896;2023-01-16T10:17:20;94015.47;;;5.76;61.27
45345;BME280;31078;48.304;11.896;2023-01-16T10:20:01;94003.09;;;6.03;60.59
45345;BME280;31078;48.304;11.896;2023-01-16T10:22:39;93989.25;;;6.05;60.71
45345;BME280;31078;48.304;11.896;2023-01-16T10:25:20;93979.09;;;5.86;60.32
45345;BME280;31078;48.304;11.896;2023-01-16T10:27:59;93968.03;;;5.91;60.40
45345;BME280;31078;48.304;11.896;2023-01-16T10:30:34;93950.84;;;5.83;59.74
45345;BME280;31078;48.304;11.896;2023-01-16T10:33:05;93940.88;;;5.56;61.62
45345;BME280;31078;48.304;11.896;2023-01-16T10:35:38;93933.69;;;5.19;62.71
45345;BME280;31078;48.304;11.896;2023-01-16T10:38:16;93923.38;;;5.09;63.05
45345;BME280;31078;48.304;11.896;2023-01-16T10:40:48;93910.00;;;5.13;63.01
45345;BME280;31078;48.304;11.896;2023-01-16T10:43:19;93905.09;;;5.31;62.65
45345;BME280;31078;48.304;11.896;2023-01-16T10:46:13;93892.13;;;5.36;62.32
45345;BME280;31078;48.304;11.896;2023-01-16T10:48:59;93884.28;;;5.75;62.95
45345;BME280;31078;48.304;11.896;2023-01-16T10:51:43;93863.50;;;6.07;60.99
45345;BME280;31078;48.304;11.896;2023-01-16T10:54:10;93863.50;;;5.91;60.99
45345;BME280;31078;48.304;11.896;2023-01-16T10:56:38;93849.63;;;6.09;60.45
45345;BME280;31078;48.304;11.896;2023-01-16T10:59:05;93856.06;;;6.20;60.43
45345;BME280;31078;48.304;11.896;2023-01-16T11:01:32;93846.78;;;6.52;59.49
45345;BME280;31078;48.304;11.896;2023-01-16T11:04:00;93848.34;;;6.53;57.80
45345;BME280;31078;48.304;11.896;2023-01-16T11:06:27;93834.31;;;6.48;57.73
45345;BME280;31078;48.304;11.896;2023-01-16T11:09:00;93832.63;;;6.59;59.37
45345;BME280;31078;48.304;11.896;2023-01-16T11:11:28;93829.28;;;6.66;58.57
45345;BME280;31078;48.304;11.896;2023-01-16T11:14:18;93819.31;;;6.50;60.02
45345;BME280;31078;48.304;11.896;2023-01-16T11:17:24;93818.88;;;6.48;59.07
45345;BME280;31078;48.304;11.896;2023-01-16T11:20:12;93808.06;;;6.48;59.25
45345;BME280;31078;48.304;11.896;2023-01-16T11:22:40;93793.00;;;6.47;59.33
45345;BME280;31078;48.304;11.896;2023-01-16T11:25:13;93802.50;;;6.41;58.84
45345;BME280;31078;48.304;11.896;2023-01-16T11:27:43;93795.03;;;6.35;58.25
45345;BME280;31078;48.304;11.896;2023-01-16T11:30:16;93785.16;;;6.62;58.95
45345;BME280;31078;48.304;11.896;2023-01-16T11:32:45;93787.88;;;6.81;58.68
45345;BME280;31078;48.304;11.896;2023-01-16T11:35:14;93776.19;;;6.77;57.66
45345;BME280;31078;48.304;11.896;2023-01-16T11:37:43;93776.97;;;6.77;57.05
45345;BME280;31078;48.304;11.896;2023-01-16T11:40:17;93770.13;;;7.03;57.10
45345;BME280;31078;48.304;11.896;2023-01-16T11:42:52;93766.13;;;7.62;55.04
45345;BME280;31078;48.304;11.896;2023-01-16T11:45:43;93757.91;;;7.78;54.03
45345;BME280;31078;48.304;11.896;2023-01-16T11:48:33;93752.56;;;7.85;55.41
45345;BME280;31078;48.304;11.896;2023-01-16T11:51:02;93756.50;;;7.65;51.46
45345;BME280;31078;48.304;11.896;2023-01-16T11:53:31;93745.56;;;7.35;52.67
45345;BME280;31078;48.304;11.896;2023-01-16T11:56:08;93730.94;;;7.39;53.32
45345;BME280;31078;48.304;11.896;2023-01-16T11:58:48;93729.75;;;7.37;52.87
45345;BME280;31078;48.304;11.896;2023-01-16T12:01:25;93719.69;;;7.37;51.85
45345;BME280;31078;48.304;11.896;2023-01-16T12:04:19;93695.09;;;7.23;51.86
45345;BME280;31078;48.304;11.896;2023-01-16T12:06:54;93683.41;;;7.19;53.88
45345;BME280;31078;48.304;11.896;2023-01-16T12:09:43;93675.34;;;6.99;54.98
45345;BME280;31078;48.304;11.896;2023-01-16T12:12:17;93665.75;;;6.79;55.25
45345;BME280;31078;48.304;11.896;2023-01-16T12:15:05;93664.59;;;6.80;55.13
45345;BME280;31078;48.304;11.896;2023-01-16T12:17:45;93646.25;;;6.70;56.49
45345;BME280;31078;48.304;11.896;2023-01-16T12:20:20;93637.59;;;6.61;56.69
45345;BME280;31078;48.304;11.896;2023-01-16T12:23:16;93612.00;;;6.54;56.34
45345;BME280;31078;48.304;11.896;2023-01-16T12:25:56;93601.25;;;6.58;56.38
45345;BME280;31078;48.304;11.896;2023-01-16T12:28:35;93595.75;;;6.54;56.68
45345;BME280;31078;48.304;11.896;2023-01-16T12:31:15;93601.19;;;6.54;55.75
45345;BME280;31078;48.304;11.896;2023-01-16T12:34:08;93608.72;;;6.45;56.35
45345;BME280;31078;48.304;11.896;2023-01-16T12:36:44;93611.66;;;6.37;57.05
45345;BME280;31078;48.304;11.896;2023-01-16T12:39:17;93611.59;;;6.33;57.99
45345;BME280;31078;48.304;11.896;2023-01-16T12:41:53;93615.56;;;6.39;56.70
45345;BME280;31078;48.304;11.896;2023-01-16T12:44:50;93603.97;;;6.39;57.29
45345;BME280;31078;48.304;11.896;2023-01-16T12:47:27;93611.91;;;6.51;56.69
45345;BME280;31078;48.304;11.896;2023-01-16T12:50:07;93613.53;;;6.56;57.51
45345;BME280;31078;48.304;11.896;2023-01-16T12:52:47;93614.09;;;6.65;57.27
45345;BME280;31078;48.304;11.896;2023-01-16T12:55:27;93615.91;;;6.80;57.46
45345;BME280;31078;48.304;11.896;2023-01-16T12:58:03;93618.63;;;6.80;56.78
45345;BME280;31078;48.304;11.896;2023-01-16T13:00:39;93616.09;;;6.91;55.20
45345;BME280;31078;48.304;11.896;2023-01-16T13:03:15;93608.66;;;6.84;56.08
45345;BME280;31078;48.304;11.896;2023-01-16T13:05:45;93605.81;;;6.77;55.10
45345;BME280;31078;48.304;11.896;2023-01-16T13:08:17;93603.00;;;6.70;56.00
45345;BME280;31078;48.304;11.896;2023-01-16T13:10:48;93593.97;;;6.62;56.08
45345;BME280;31078;48.304;11.896;2023-01-16T13:13:36;93586.91;;;6.58;56.02
45345;BME280;31078;48.304;11.896;2023-01-16T13:16:10;93584.94;;;6.54;56.83
45345;BME280;31078;48.304;11.896;2023-01-16T13:18:42;93587.25;;;6.52;56.38
45345;BME280;31078;48.304;11.896;2023-01-16T13:21:15;93590.25;;;6.47;57.11
45345;BME280;31078;48.304;11.896;2023-01-16T13:23:46;93583.25;;;6.46;57.29
45345;BME280;31078;48.304;11.896;2023-01-16T13:26:15;93583.44;;;6.34;57.24
45345;BME280;31078;48.304;11.896;2023-01-16T13:28:46;93588.84;;;6.34;56.75